sensor_id;sensor_type;location;lat;lon;timestamp;pressure;altitude;pressure_sealevel;temperature
69785;BMP280;14177;51.520;6.764;2023-02-01T00:01:07;101808.38;;;6.14
69785;BMP280;14177;51.520;6.764;2023-02-01T00:03:34;101800.63;;;6.11
69785;BMP280;14177;51.520;6.764;2023-02-01T00:06:02;101802.34;;;6.12
69785;BMP280;14177;51.520;6.764;2023-02-01T00:08:29;101811.81;;;6.15
69785;BMP280;14177;51.520;6.764;2023-02-01T00:11:06;101804.94;;;6.14
69785;BMP280;14177;51.520;6.764;2023-02-01T00:13:37;101801.50;;;6.15
69785;BMP280;14177;51.520;6.764;2023-02-01T00:16:11;101804.94;;;6.17
69785;BMP280;14177;51.520;6.764;2023-02-01T00:18:48;101808.38;;;6.17
69785;BMP280;14177;51.520;6.764;2023-02-01T00:21:21;101792.91;;;6.23
69785;BMP280;14177;51.520;6.764;2023-02-01T00:23:48;101804.97;;;6.24
69785;BMP280;14177;51.520;6.764;2023-02-01T00:26:32;101803.22;;;6.20
69785;BMP280;14177;51.520;6.764;2023-02-01T00:29:03;101798.94;;;6.22
69785;BMP280;14177;51.520;6.764;2023-02-01T00:31:31;101793.78;;;6.22
69785;BMP280;14177;51.520;6.764;2023-02-01T00:33:58;101780.00;;;6.20
69785;BMP280;14177;51.520;6.764;2023-02-01T00:36:25;101771.41;;;6.18
69785;BMP280;14177;51.520;6.764;2023-02-01T00:38:52;101769.69;;;6.23
69785;BMP280;14177;51.520;6.764;2023-02-01T00:41:21;101760.22;;;6.27
69785;BMP280;14177;51.520;6.764;2023-02-01T00:43:50;101758.53;;;6.30
69785;BMP280;14177;51.520;6.764;2023-02-01T00:46:19;101764.53;;;6.32
69785;BMP280;14177;51.520;6.764;2023-02-01T00:48:47;101761.09;;;6.30
69785;BMP280;14177;51.520;6.764;2023-02-01T00:51:21;101757.66;;;6.31
69785;BMP280;14177;51.520;6.764;2023-02-01T00:53:49;101768.00;;;6.31
69785;BMP280;14177;51.520;6.764;2023-02-01T00:56:16;101766.28;;;6.33
69785;BMP280;14177;51.520;6.764;2023-02-01T00:58:44;101765.38;;;6.30
69785;BMP280;14177;51.520;6.764;2023-02-01T01:03:55;101775.72;;;6.39
69785;BMP280;14177;51.520;6.764;2023-02-01T01:06:31;101780.06;;;6.47
69785;BMP280;14177;51.520;6.764;2023-02-01T01:09:03;101770.59;;;6.51
69785;BMP280;14177;51.520;6.764;2023-02-01T01:11:33;101774.88;;;6.52
69785;BMP280;14177;51.520;6.764;2023-02-01T01:14:01;101774.88;;;6.59
69785;BMP280;14177;51.520;6.764;2023-02-01T01:16:30;101784.38;;;6.59
69785;BMP280;14177;51.520;6.764;2023-02-01T01:18:58;101778.34;;;6.63
69785;BMP280;14177;51.520;6.764;2023-02-01T01:21:29;101781.78;;;6.63
69785;BMP280;14177;51.520;6.764;2023-02-01T01:23:56;101759.41;;;6.68
69785;BMP280;14177;51.520;6.764;2023-02-01T01:26:26;101762.00;;;6.67
69785;BMP280;14177;51.520;6.764;2023-02-01T01:28:58;101771.47;;;6.65
69785;BMP280;14177;51.520;6.764;2023-02-01T01:31:26;101770.59;;;6.66
69785;BMP280;14177;51.520;6.764;2023-02-01T01:33:57;101762.84;;;6.69
69785;BMP280;14177;51.520;6.764;2023-02-01T01:36:26;101770.59;;;6.66
69785;BMP280;14177;51.520;6.764;2023-02-01T01:38:54;101771.44;;;6.63
69785;BMP280;14177;51.520;6.764;2023-02-01T01:41:29;101770.59;;;6.63
69785;BMP280;14177;51.520;6.764;2023-02-01T01:44:53;101751.66;;;6.65
69785;BMP280;14177;51.520;6.764;2023-02-01T01:46:53;101755.94;;;6.63
69785;BMP280;14177;51.520;6.764;2023-02-01T01:49:23;101752.50;;;6.64
69785;BMP280;14177;51.520;6.764;2023-02-01T01:51:56;101754.22;;;6.62
69785;BMP280;14177;51.520;6.764;2023-02-01T01:54:37;101751.66;;;6.65
69785;BMP280;14177;51.520;6.764;2023-02-01T01:57:16;101749.94;;;6.64
69785;BMP280;14177;51.520;6.764;2023-02-01T01:59:54;101753.38;;;6.63
69785;BMP280;14177;51.520;6.764;2023-02-01T02:02:22;101750.78;;;6.66
69785;BMP280;14177;51.520;6.764;2023-02-01T02:04:50;101739.59;;;6.61
69785;BMP280;14177;51.520;6.764;2023-02-01T02:07:29;101744.78;;;6.60
69785;BMP280;14177;51.520;6.764;2023-02-01T02:09:56;101733.59;;;6.53
69785;BMP280;14177;51.520;6.764;2023-02-01T02:12:28;101747.38;;;6.55
69785;BMP280;14177;51.520;6.764;2023-02-01T02:14:55;101752.53;;;6.49
69785;BMP280;14177;51.520;6.764;2023-02-01T02:17:51;101746.50;;;6.44
69785;BMP280;14177;51.520;6.764;2023-02-01T02:26:49;101743.91;;;6.41
69785;BMP280;14177;51.520;6.764;2023-02-01T02:29:39;101736.16;;;6.41
69785;BMP280;14177;51.520;6.764;2023-02-01T02:35:51;101737.91;;;6.42
69785;BMP280;14177;51.520;6.764;2023-02-01T02:38:58;101732.72;;;6.44
69785;BMP280;14177;51.520;6.764;2023-02-01T02:41:44;101727.56;;;6.41
69785;BMP280;14177;51.520;6.764;2023-02-01T02:44:48;101717.22;;;6.35
69785;BMP280;14177;51.520;6.764;2023-02-01T02:47:46;101720.66;;;6.29
69785;BMP280;14177;51.520;6.764;2023-02-01T02:50:29;101734.41;;;6.21
69785;BMP280;14177;51.520;6.764;2023-02-01T02:53:58;101725.81;;;6.16
69785;BMP280;14177;51.520;6.764;2023-02-01T02:56:46;101721.50;;;6.10
69785;BMP280;14177;51.520;6.764;2023-02-01T02:59:34;101719.75;;;6.06
69785;BMP280;14177;51.520;6.764;2023-02-01T03:02:21;101718.03;;;6.05
69785;BMP280;14177;51.520;6.764;2023-02-01T03:05:07;101709.44;;;6.00
69785;BMP280;14177;51.520;6.764;2023-02-01T03:08:14;101708.59;;;6.03
69785;BMP280;14177;51.520;6.764;2023-02-01T03:11:03;101706.00;;;6.01
69785;BMP280;14177;51.520;6.764;2023-02-01T03:16:32;101681.06;;;5.96
69785;BMP280;14177;51.520;6.764;2023-02-01T03:19:38;101683.63;;;6.00
69785;BMP280;14177;51.520;6.764;2023-02-01T03:22:14;101666.44;;;5.97
69785;BMP280;14177;51.520;6.764;2023-02-01T03:24:54;101680.22;;;6.00
69785;BMP280;14177;51.520;6.764;2023-02-01T03:27:32;101680.22;;;6.00
69785;BMP280;14177;51.520;6.764;2023-02-01T03:30:33;101681.91;;;6.02
69785;BMP280;14177;51.520;6.764;2023-02-01T03:33:05;101681.91;;;6.05
69785;BMP280;14177;51.520;6.764;2023-02-01T03:38:37;101679.38;;;6.17
69785;BMP280;14177;51.520;6.764;2023-02-01T03:41:23;101671.63;;;6.17
69785;BMP280;14177;51.520;6.764;2023-02-01T03:44:11;101669.88;;;6.21
69785;BMP280;14177;51.520;6.764;2023-02-01T03:46:50;101663.03;;;6.21
69785;BMP280;14177;51.520;6.764;2023-02-01T03:49:44;101647.53;;;6.23
69785;BMP280;14177;51.520;6.764;2023-02-01T03:52:18;101640.66;;;6.22
69785;BMP280;14177;51.520;6.764;2023-02-01T03:54:48;101622.59;;;6.23
69785;BMP280;14177;51.520;6.764;2023-02-01T03:57:30;101620.88;;;6.22
69785;BMP280;14177;51.520;6.764;2023-02-01T04:00:26;101632.91;;;6.25
69785;BMP280;14177;51.520;6.764;2023-02-01T04:02:55;101638.94;;;6.33
69785;BMP280;14177;51.520;6.764;2023-02-01T04:05:22;101635.50;;;6.29
69785;BMP280;14177;51.520;6.764;2023-02-01T04:07:59;101625.16;;;6.31
69785;BMP280;14177;51.520;6.764;2023-02-01T04:10:27;101632.06;;;6.33
69785;BMP280;14177;51.520;6.764;2023-02-01T04:12:54;101652.72;;;6.39
69785;BMP280;14177;51.520;6.764;2023-02-01T04:15:21;101640.66;;;6.29
69785;BMP280;14177;51.520;6.764;2023-02-01T04:17:47;101647.53;;;6.30
69785;BMP280;14177;51.520;6.764;2023-02-01T04:20:15;101651.81;;;6.27
69785;BMP280;14177;51.520;6.764;2023-02-01T04:22:42;101649.25;;;6.22
69785;BMP280;14177;51.520;6.764;2023-02-01T04:25:09;101670.78;;;6.24
69785;BMP280;14177;51.520;6.764;2023-02-01T04:27:35;101658.72;;;6.26
69785;BMP280;14177;51.520;6.764;2023-02-01T04:30:04;101658.72;;;6.26
69785;BMP280;14177;51.520;6.764;2023-02-01T04:32:31;101663.88;;;6.26
69785;BMP280;14177;51.520;6.764;2023-02-01T04:34:58;101661.31;;;6.26
69785;BMP280;14177;51.520;6.764;2023-02-01T04:37:25;101657.00;;;6.28
69785;BMP280;14177;51.520;6.764;2023-02-01T04:39:52;101673.34;;;6.24
69785;BMP280;14177;51.520;6.764;2023-02-01T04:42:18;101669.88;;;6.24
69785;BMP280;14177;51.520;6.764;2023-02-01T04:44:45;101668.16;;;6.23
69785;BMP280;14177;51.520;6.764;2023-02-01T04:47:12;101654.41;;;6.19
69785;BMP280;14177;51.520;6.764;2023-02-01T04:49:39;101672.47;;;6.21
69785;BMP280;14177;51.520;6.764;2023-02-01T04:52:06;101662.16;;;6.25
69785;BMP280;14177;51.520;6.764;2023-02-01T04:54:33;101665.59;;;6.23
69785;BMP280;14177;51.520;6.764;2023-02-01T04:57:00;101652.72;;;6.17
69785;BMP280;14177;51.520;6.764;2023-02-01T04:59:27;101662.16;;;6.19
69785;BMP280;14177;51.520;6.764;2023-02-01T05:01:55;101664.75;;;6.22
69785;BMP280;14177;51.520;6.764;2023-02-01T05:04:22;101659.59;;;6.19
69785;BMP280;14177;51.520;6.764;2023-02-01T05:06:48;101656.13;;;6.17
69785;BMP280;14177;51.520;6.764;2023-02-01T05:09:15;101667.31;;;6.09
69785;BMP280;14177;51.520;6.764;2023-02-01T05:11:42;101661.28;;;6.08
69785;BMP280;14177;51.520;6.764;2023-02-01T05:14:28;101660.44;;;6.06
69785;BMP280;14177;51.520;6.764;2023-02-01T05:16:55;101666.44;;;6.08
69785;BMP280;14177;51.520;6.764;2023-02-01T05:19:22;101647.53;;;6.03
69785;BMP280;14177;51.520;6.764;2023-02-01T05:21:49;101659.56;;;6.00
69785;BMP280;14177;51.520;6.764;2023-02-01T05:24:16;101660.41;;;5.92
69785;BMP280;14177;51.520;6.764;2023-02-01T05:26:49;101675.03;;;5.91
69785;BMP280;14177;51.520;6.764;2023-02-01T05:29:19;101663.88;;;5.95
69785;BMP280;14177;51.520;6.764;2023-02-01T05:31:46;101658.69;;;5.89
69785;BMP280;14177;51.520;6.764;2023-02-01T05:34:15;101660.38;;;5.81
69785;BMP280;14177;51.520;6.764;2023-02-01T05:36:42;101661.28;;;5.82
69785;BMP280;14177;51.520;6.764;2023-02-01T05:39:09;101672.41;;;5.79
69785;BMP280;14177;51.520;6.764;2023-02-01T05:41:37;101665.56;;;5.81
69785;BMP280;14177;51.520;6.764;2023-02-01T05:44:04;101664.66;;;5.75
69785;BMP280;14177;51.520;6.764;2023-02-01T05:46:35;101658.59;;;5.68
69785;BMP280;14177;51.520;6.764;2023-02-01T05:49:11;101649.16;;;5.69
69785;BMP280;14177;51.520;6.764;2023-02-01T05:51:38;101650.88;;;5.67
69785;BMP280;14177;51.520;6.764;2023-02-01T05:54:05;101646.59;;;5.73
69785;BMP280;14177;51.520;6.764;2023-02-01T05:56:31;101640.63;;;5.79
69785;BMP280;14177;51.520;6.764;2023-02-01T05:58:58;101644.06;;;5.87
69785;BMP280;14177;51.520;6.764;2023-02-01T06:01:25;101640.63;;;5.91
69785;BMP280;14177;51.520;6.764;2023-02-01T06:03:52;101642.34;;;5.89
69785;BMP280;14177;51.520;6.764;2023-02-01T06:06:19;101644.06;;;5.90
69785;BMP280;14177;51.520;6.764;2023-02-01T06:08:46;101643.22;;;5.89
69785;BMP280;14177;51.520;6.764;2023-02-01T06:11:13;101653.50;;;5.88
69785;BMP280;14177;51.520;6.764;2023-02-01T06:13:58;101659.53;;;5.90
69785;BMP280;14177;51.520;6.764;2023-02-01T06:16:25;101671.59;;;5.92
69785;BMP280;14177;51.520;6.764;2023-02-01T06:18:51;101674.19;;;5.95
69785;BMP280;14177;51.520;6.764;2023-02-01T06:21:18;101671.59;;;5.94
69785;BMP280;14177;51.520;6.764;2023-02-01T06:23:53;101663.00;;;6.02
69785;BMP280;14177;51.520;6.764;2023-02-01T06:26:20;101666.44;;;6.02
69785;BMP280;14177;51.520;6.764;2023-02-01T06:28:48;101663.00;;;6.02
69785;BMP280;14177;51.520;6.764;2023-02-01T06:31:15;101667.31;;;6.04
69785;BMP280;14177;51.520;6.764;2023-02-01T06:33:42;101665.59;;;6.09
69785;BMP280;14177;51.520;6.764;2023-02-01T06:36:11;101658.72;;;6.10
69785;BMP280;14177;51.520;6.764;2023-02-01T06:38:42;101665.59;;;6.09
69785;BMP280;14177;51.520;6.764;2023-02-01T06:41:09;101666.47;;;6.14
69785;BMP280;14177;51.520;6.764;2023-02-01T06:43:36;101657.84;;;6.12
69785;BMP280;14177;51.520;6.764;2023-02-01T06:46:08;101661.28;;;6.11
69785;BMP280;14177;51.520;6.764;2023-02-01T06:48:36;101663.00;;;6.09
69785;BMP280;14177;51.520;6.764;2023-02-01T06:51:03;101667.31;;;6.13
69785;BMP280;14177;51.520;6.764;2023-02-01T06:53:31;101661.31;;;6.17
69785;BMP280;14177;51.520;6.764;2023-02-01T06:56:01;101661.31;;;6.17
69785;BMP280;14177;51.520;6.764;2023-02-01T06:58:33;101675.06;;;6.19
69785;BMP280;14177;51.520;6.764;2023-02-01T07:01:09;101677.63;;;6.24
69785;BMP280;14177;51.520;6.764;2023-02-01T07:03:37;101675.06;;;6.25
69785;BMP280;14177;51.520;6.764;2023-02-01T07:06:05;101676.78;;;6.17
69785;BMP280;14177;51.520;6.764;2023-02-01T07:08:36;101666.47;;;6.19
69785;BMP280;14177;51.520;6.764;2023-02-01T07:11:10;101675.94;;;6.24
69785;BMP280;14177;51.520;6.764;2023-02-01T07:13:38;101676.78;;;6.26
69785;BMP280;14177;51.520;6.764;2023-02-01T07:16:10;101679.38;;;6.34
69785;BMP280;14177;51.520;6.764;2023-02-01T07:18:37;101681.09;;;6.29
69785;BMP280;14177;51.520;6.764;2023-02-01T07:21:04;101683.66;;;6.24
69785;BMP280;14177;51.520;6.764;2023-02-01T07:23:31;101686.25;;;6.27
69785;BMP280;14177;51.520;6.764;2023-02-01T07:26:03;101686.25;;;6.30
69785;BMP280;14177;51.520;6.764;2023-02-01T07:28:33;101692.28;;;6.32
69785;BMP280;14177;51.520;6.764;2023-02-01T07:31:06;101696.59;;;6.30
69785;BMP280;14177;51.520;6.764;2023-02-01T07:33:33;101696.56;;;6.29
69785;BMP280;14177;51.520;6.764;2023-02-01T07:36:06;101691.41;;;6.29
69785;BMP280;14177;51.520;6.764;2023-02-01T07:38:34;101693.13;;;6.31
69785;BMP280;14177;51.520;6.764;2023-02-01T07:41:03;101689.69;;;6.31
69785;BMP280;14177;51.520;6.764;2023-02-01T07:43:32;101692.28;;;6.40
69785;BMP280;14177;51.520;6.764;2023-02-01T07:46:03;101688.81;;;6.35
69785;BMP280;14177;51.520;6.764;2023-02-01T07:48:31;101694.00;;;6.36
69785;BMP280;14177;51.520;6.764;2023-02-01T07:51:03;101700.88;;;6.34
69785;BMP280;14177;51.520;6.764;2023-02-01T07:53:32;101701.72;;;6.35
69785;BMP280;14177;51.520;6.764;2023-02-01T07:56:00;101699.16;;;6.39
69785;BMP280;14177;51.520;6.764;2023-02-01T07:58:28;101701.75;;;6.41
69785;BMP280;14177;51.520;6.764;2023-02-01T08:00:55;101706.06;;;6.40
69785;BMP280;14177;51.520;6.764;2023-02-01T08:03:40;101702.59;;;6.32
69785;BMP280;14177;51.520;6.764;2023-02-01T08:06:07;101715.50;;;6.37
69785;BMP280;14177;51.520;6.764;2023-02-01T08:08:34;101709.47;;;6.30
69785;BMP280;14177;51.520;6.764;2023-02-01T08:11:04;101709.47;;;6.38
69785;BMP280;14177;51.520;6.764;2023-02-01T08:13:33;101707.75;;;6.43
69785;BMP280;14177;51.520;6.764;2023-02-01T08:16:03;101713.78;;;6.39
69785;BMP280;14177;51.520;6.764;2023-02-01T08:18:30;101708.63;;;6.39
69785;BMP280;14177;51.520;6.764;2023-02-01T08:21:08;101703.47;;;6.37
69785;BMP280;14177;51.520;6.764;2023-02-01T08:23:37;101706.06;;;6.37
69785;BMP280;14177;51.520;6.764;2023-02-01T08:26:06;101714.63;;;6.41
69785;BMP280;14177;51.520;6.764;2023-02-01T08:28:33;101703.47;;;6.40
69785;BMP280;14177;51.520;6.764;2023-02-01T08:31:09;101725.84;;;6.46
69785;BMP280;14177;51.520;6.764;2023-02-01T08:33:37;101723.28;;;6.50
69785;BMP280;14177;51.520;6.764;2023-02-01T08:36:07;101721.53;;;6.54
69785;BMP280;14177;51.520;6.764;2023-02-01T08:38:39;101719.78;;;6.57
69785;BMP280;14177;51.520;6.764;2023-02-01T08:41:16;101722.41;;;6.59
69785;BMP280;14177;51.520;6.764;2023-02-01T08:43:44;101729.28;;;6.63
69785;BMP280;14177;51.520;6.764;2023-02-01T08:46:12;101724.13;;;6.69
69785;BMP280;14177;51.520;6.764;2023-02-01T08:48:39;101743.03;;;6.75
69785;BMP280;14177;51.520;6.764;2023-02-01T08:51:12;101726.69;;;6.70
69785;BMP280;14177;51.520;6.764;2023-02-01T08:53:41;101741.31;;;6.74
69785;BMP280;14177;51.520;6.764;2023-02-01T08:56:10;101738.75;;;6.76
69785;BMP280;14177;51.520;6.764;2023-02-01T08:58:37;101749.06;;;6.74
69785;BMP280;14177;51.520;6.764;2023-02-01T09:01:08;101742.19;;;6.67
69785;BMP280;14177;51.520;6.764;2023-02-01T09:03:36;101731.00;;;6.67
69785;BMP280;14177;51.520;6.764;2023-02-01T09:06:06;101736.16;;;6.62
69785;BMP280;14177;51.520;6.764;2023-02-01T09:08:34;101731.00;;;6.65
69785;BMP280;14177;51.520;6.764;2023-02-01T09:11:08;101705.19;;;6.67
69785;BMP280;14177;51.520;6.764;2023-02-01T09:13:35;101701.72;;;6.66
69785;BMP280;14177;51.520;6.764;2023-02-01T09:16:03;101697.41;;;6.68
69785;BMP280;14177;51.520;6.764;2023-02-01T09:18:30;101705.19;;;6.70
69785;BMP280;14177;51.520;6.764;2023-02-01T09:20:57;101703.47;;;6.75
69785;BMP280;14177;51.520;6.764;2023-02-01T09:23:24;101708.63;;;6.78
69785;BMP280;14177;51.520;6.764;2023-02-01T09:25:52;101689.66;;;6.83
69785;BMP280;14177;51.520;6.764;2023-02-01T09:28:19;101705.16;;;6.83
69785;BMP280;14177;51.520;6.764;2023-02-01T09:30:46;101699.13;;;6.84
69785;BMP280;14177;51.520;6.764;2023-02-01T09:33:13;101692.22;;;6.89
69785;BMP280;14177;51.520;6.764;2023-02-01T09:35:40;101699.94;;;6.97
69785;BMP280;14177;51.520;6.764;2023-02-01T09:38:06;101699.97;;;6.98
69785;BMP280;14177;51.520;6.764;2023-02-01T09:40:34;101699.09;;;7.01
69785;BMP280;14177;51.520;6.764;2023-02-01T09:46:28;101696.50;;;7.11
69785;BMP280;14177;51.520;6.764;2023-02-01T09:49:00;101698.22;;;7.18
69785;BMP280;14177;51.520;6.764;2023-02-01T09:51:42;101705.94;;;7.22
69785;BMP280;14177;51.520;6.764;2023-02-01T09:54:19;101701.63;;;7.23
69785;BMP280;14177;51.520;6.764;2023-02-01T09:57:18;101695.63;;;7.21
69785;BMP280;14177;51.520;6.764;2023-02-01T10:00:05;101692.16;;;7.22
69785;BMP280;14177;51.520;6.764;2023-02-01T10:02:39;101697.34;;;7.22
69785;BMP280;14177;51.520;6.764;2023-02-01T10:05:23;101702.50;;;7.28
69785;BMP280;14177;51.520;6.764;2023-02-01T10:08:04;101718.84;;;7.28
69785;BMP280;14177;51.520;6.764;2023-02-01T10:11:01;101707.59;;;7.34
69785;BMP280;14177;51.520;6.764;2023-02-01T10:15:02;101696.41;;;7.39
69785;BMP280;14177;51.520;6.764;2023-02-01T10:20:35;101675.69;;;7.41
69785;BMP280;14177;51.520;6.764;2023-02-01T10:23:37;101686.03;;;7.44
69785;BMP280;14177;51.520;6.764;2023-02-01T10:26:37;101687.78;;;7.43
69785;BMP280;14177;51.520;6.764;2023-02-01T10:29:16;101682.56;;;7.45
69785;BMP280;14177;51.520;6.764;2023-02-01T10:31:45;101698.13;;;7.43
69785;BMP280;14177;51.520;6.764;2023-02-01T10:34:28;101695.50;;;7.45
69785;BMP280;14177;51.520;6.764;2023-02-01T10:37:02;101681.72;;;7.43
69785;BMP280;14177;51.520;6.764;2023-02-01T10:39:34;101696.38;;;7.45
69785;BMP280;14177;51.520;6.764;2023-02-01T10:42:03;101692.88;;;7.58
69785;BMP280;14177;51.520;6.764;2023-02-01T10:44:34;101695.47;;;7.58
69785;BMP280;14177;51.520;6.764;2023-02-01T10:47:05;101686.78;;;7.70
69785;BMP280;14177;51.520;6.764;2023-02-01T10:49:49;101679.84;;;7.75
69785;BMP280;14177;51.520;6.764;2023-02-01T10:52:36;101685.88;;;7.75
69785;BMP280;14177;51.520;6.764;2023-02-01T10:55:36;101679.84;;;7.78
69785;BMP280;14177;51.520;6.764;2023-02-01T10:58:28;101691.91;;;7.79
69785;BMP280;14177;51.520;6.764;2023-02-01T11:00:59;101682.38;;;7.82
69785;BMP280;14177;51.520;6.764;2023-02-01T11:03:45;101678.06;;;7.89
69785;BMP280;14177;51.520;6.764;2023-02-01T11:08:55;101679.66;;;8.03
69785;BMP280;14177;51.520;6.764;2023-02-01T11:11:24;101665.91;;;8.00
69785;BMP280;14177;51.520;6.764;2023-02-01T11:14:13;101681.44;;;8.00
69785;BMP280;14177;51.520;6.764;2023-02-01T11:16:40;101667.66;;;7.98
69785;BMP280;14177;51.520;6.764;2023-02-01T11:19:07;101657.31;;;7.95
69785;BMP280;14177;51.520;6.764;2023-02-01T11:21:42;101648.66;;;7.99
69785;BMP280;14177;51.520;6.764;2023-02-01T11:24:31;101652.13;;;7.96
69785;BMP280;14177;51.520;6.764;2023-02-01T11:27:03;101638.28;;;8.00
69785;BMP280;14177;51.520;6.764;2023-02-01T11:29:38;101615.91;;;7.98
69785;BMP280;14177;51.520;6.764;2023-02-01T11:32:09;101618.41;;;8.05
69785;BMP280;14177;51.520;6.764;2023-02-01T11:34:43;101607.19;;;8.05
69785;BMP280;14177;51.520;6.764;2023-02-01T11:37:34;101624.44;;;8.03
69785;BMP280;14177;51.520;6.764;2023-02-01T11:43:13;101627.13;;;7.97
69785;BMP280;14177;51.520;6.764;2023-02-01T11:45:41;101632.34;;;7.86
69785;BMP280;14177;51.520;6.764;2023-02-01T11:48:15;101645.31;;;7.82
69785;BMP280;14177;51.520;6.764;2023-02-01T12:00:10;101605.81;;;7.56
69785;BMP280;14177;51.520;6.764;2023-02-01T12:02:57;101611.88;;;7.56
69785;BMP280;14177;51.520;6.764;2023-02-01T12:05:59;101598.06;;;7.56
69785;BMP280;14177;51.520;6.764;2023-02-01T12:09:01;101600.59;;;7.65
69785;BMP280;14177;51.520;6.764;2023-02-01T12:21:19;101596.19;;;7.77
69785;BMP280;14177;51.520;6.764;2023-02-01T12:27:26;101586.63;;;7.90
69785;BMP280;14177;51.520;6.764;2023-02-01T12:39:37;101579.50;;;8.16
69785;BMP280;14177;51.520;6.764;2023-02-01T12:42:22;101571.75;;;8.19
69785;BMP280;14177;51.520;6.764;2023-02-01T12:44:56;101571.75;;;8.20
69785;BMP280;14177;51.520;6.764;2023-02-01T12:47:51;101581.13;;;8.29
69785;BMP280;14177;51.520;6.764;2023-02-01T12:50:39;101572.53;;;8.27
69785;BMP280;14177;51.520;6.764;2023-02-01T12:53:29;101574.28;;;8.25
69785;BMP280;14177;51.520;6.764;2023-02-01T12:56:03;101558.78;;;8.22
69785;BMP280;14177;51.520;6.764;2023-02-01T12:58:50;101572.59;;;8.21
69785;BMP280;14177;51.520;6.764;2023-02-01T13:01:28;101569.13;;;8.16
69785;BMP280;14177;51.520;6.764;2023-02-01T13:04:14;101567.44;;;8.16
69785;BMP280;14177;51.520;6.764;2023-02-01T13:06:48;101582.97;;;8.18
69785;BMP280;14177;51.520;6.764;2023-02-01T13:09:45;101566.56;;;8.20
69785;BMP280;14177;51.520;6.764;2023-02-01T13:12:34;101557.94;;;8.21
69785;BMP280;14177;51.520;6.764;2023-02-01T13:15:17;101548.41;;;8.23
69785;BMP280;14177;51.520;6.764;2023-02-01T13:17:47;101551.88;;;8.21
69785;BMP280;14177;51.520;6.764;2023-02-01T13:20:32;101562.19;;;8.27
69785;BMP280;14177;51.520;6.764;2023-02-01T13:23:14;101563.03;;;8.30
69785;BMP280;14177;51.520;6.764;2023-02-01T13:25:51;101556.88;;;8.39
69785;BMP280;14177;51.520;6.764;2023-02-01T13:28:41;101535.28;;;8.38
69785;BMP280;14177;51.520;6.764;2023-02-01T13:38:03;101552.44;;;8.51
69785;BMP280;14177;51.520;6.764;2023-02-01T13:43:51;101546.38;;;8.52
69785;BMP280;14177;51.520;6.764;2023-02-01T13:46:20;101551.59;;;8.50
69785;BMP280;14177;51.520;6.764;2023-02-01T13:48:57;101555.00;;;8.52
69785;BMP280;14177;51.520;6.764;2023-02-01T13:51:41;101561.00;;;8.56
69785;BMP280;14177;51.520;6.764;2023-02-01T13:54:31;101547.31;;;8.46
69785;BMP280;14177;51.520;6.764;2023-02-01T13:57:02;101543.00;;;8.44
69785;BMP280;14177;51.520;6.764;2023-02-01T13:59:49;101553.31;;;8.48
69785;BMP280;14177;51.520;6.764;2023-02-01T14:02:37;101549.91;;;8.46
69785;BMP280;14177;51.520;6.764;2023-02-01T14:10:59;101565.47;;;8.43
69785;BMP280;14177;51.520;6.764;2023-02-01T14:13:33;101574.06;;;8.45
69785;BMP280;14177;51.520;6.764;2023-02-01T14:21:26;101570.63;;;8.46
69785;BMP280;14177;51.520;6.764;2023-02-01T14:26:45;101567.97;;;8.52
69785;BMP280;14177;51.520;6.764;2023-02-01T14:29:35;101568.00;;;8.49
69785;BMP280;14177;51.520;6.764;2023-02-01T14:32:21;101571.34;;;8.59
69785;BMP280;14177;51.520;6.764;2023-02-01T14:55:44;101579.00;;;8.68
69785;BMP280;14177;51.520;6.764;2023-02-01T15:01:25;101591.00;;;8.78
69785;BMP280;14177;51.520;6.764;2023-02-01T15:04:18;101583.25;;;8.75
69785;BMP280;14177;51.520;6.764;2023-02-01T15:09:32;101580.72;;;8.70
69785;BMP280;14177;51.520;6.764;2023-02-01T15:14:48;101597.00;;;8.78
69785;BMP280;14177;51.520;6.764;2023-02-01T15:17:30;101587.59;;;8.73
69785;BMP280;14177;51.520;6.764;2023-02-01T15:20:03;101573.81;;;8.72
69785;BMP280;14177;51.520;6.764;2023-02-01T15:22:34;101580.75;;;8.67
69785;BMP280;14177;51.520;6.764;2023-02-01T15:25:03;101597.00;;;8.78
69785;BMP280;14177;51.520;6.764;2023-02-01T15:27:32;101585.81;;;8.76
69785;BMP280;14177;51.520;6.764;2023-02-01T15:30:22;101580.72;;;8.70
69785;BMP280;14177;51.520;6.764;2023-02-01T15:33:04;101571.31;;;8.62
69785;BMP280;14177;51.520;6.764;2023-02-01T15:38:32;101578.16;;;8.67
69785;BMP280;14177;51.520;6.764;2023-02-01T15:41:15;101594.63;;;8.62
69785;BMP280;14177;51.520;6.764;2023-02-01T15:46:33;101583.31;;;8.70
69785;BMP280;14177;51.520;6.764;2023-02-01T15:49:04;101581.66;;;8.63
69785;BMP280;14177;51.520;6.764;2023-02-01T15:51:32;101586.81;;;8.65
69785;BMP280;14177;51.520;6.764;2023-02-01T15:54:06;101576.50;;;8.60
69785;BMP280;14177;51.520;6.764;2023-02-01T15:56:40;101584.25;;;8.63
69785;BMP280;14177;51.520;6.764;2023-02-01T15:59:40;101584.22;;;8.66
69785;BMP280;14177;51.520;6.764;2023-02-01T16:02:36;101585.91;;;8.70
69785;BMP280;14177;51.520;6.764;2023-02-01T16:05:36;101591.13;;;8.67
69785;BMP280;14177;51.520;6.764;2023-02-01T16:08:20;101585.97;;;8.64
69785;BMP280;14177;51.520;6.764;2023-02-01T16:10:59;101592.03;;;8.62
69785;BMP280;14177;51.520;6.764;2023-02-01T16:13:26;101599.75;;;8.69
69785;BMP280;14177;51.520;6.764;2023-02-01T16:15:53;101609.22;;;8.70
69785;BMP280;14177;51.520;6.764;2023-02-01T16:18:20;101604.16;;;8.58
69785;BMP280;14177;51.520;6.764;2023-02-01T16:20:47;101594.72;;;8.53
69785;BMP280;14177;51.520;6.764;2023-02-01T16:23:14;101605.19;;;8.43
69785;BMP280;14177;51.520;6.764;2023-02-01T16:25:41;101597.53;;;8.31
69785;BMP280;14177;51.520;6.764;2023-02-01T16:28:08;101603.59;;;8.27
69785;BMP280;14177;51.520;6.764;2023-02-01T16:30:35;101609.66;;;8.24
69785;BMP280;14177;51.520;6.764;2023-02-01T16:33:02;101596.78;;;8.11
69785;BMP280;14177;51.520;6.764;2023-02-01T16:35:34;101602.78;;;8.19
69785;BMP280;14177;51.520;6.764;2023-02-01T16:38:16;101595.88;;;8.21
69785;BMP280;14177;51.520;6.764;2023-02-01T16:40:46;101609.59;;;8.32
69785;BMP280;14177;51.520;6.764;2023-02-01T16:43:22;101612.16;;;8.36
69785;BMP280;14177;51.520;6.764;2023-02-01T16:45:52;101617.34;;;8.35
69785;BMP280;14177;51.520;6.764;2023-02-01T16:48:24;101622.47;;;8.41
69785;BMP280;14177;51.520;6.764;2023-02-01T16:50:58;101617.34;;;8.36
69785;BMP280;14177;51.520;6.764;2023-02-01T16:53:28;101622.44;;;8.43